sensor_id;sensor_type;location;lat;lon;timestamp;P1;durP1;ratioP1;P2;durP2;ratioP2
79076;SDS011;68477;42.698;23.342;2023-09-19T00:00:45;6.32;;;4.70;;
79076;SDS011;68477;42.698;23.342;2023-09-19T00:03:12;8.80;;;4.80;;
79076;SDS011;68477;42.698;23.342;2023-09-19T00:05:37;5.82;;;4.50;;
79076;SDS011;68477;42.698;23.342;2023-09-19T00:08:04;7.43;;;4.88;;
79076;SDS011;68477;42.698;23.342;2023-09-19T00:10:30;6.18;;;4.10;;
79076;SDS011;68477;42.698;23.342;2023-09-19T00:13:02;8.13;;;4.63;;
79076;SDS011;68477;42.698;23.342;2023-09-19T00:15:36;7.72;;;3.90;;
79076;SDS011;68477;42.698;23.342;2023-09-19T00:18:03;5.97;;;4.10;;
79076;SDS011;68477;42.698;23.342;2023-09-19T00:22:57;7.53;;;4.20;;
79076;SDS011;68477;42.698;23.342;2023-09-19T00:25:31;7.15;;;4.85;;
79076;SDS011;68477;42.698;23.342;2023-09-19T00:27:57;9.43;;;4.35;;
79076;SDS011;68477;42.698;23.342;2023-09-19T00:30:23;8.52;;;4.93;;
79076;SDS011;68477;42.698;23.342;2023-09-19T00:32:50;6.05;;;4.43;;
79076;SDS011;68477;42.698;23.342;2023-09-19T00:35:22;9.32;;;4.90;;
79076;SDS011;68477;42.698;23.342;2023-09-19T00:37:52;9.93;;;5.13;;
79076;SDS011;68477;42.698;23.342;2023-09-19T00:40:18;9.25;;;4.72;;
79076;SDS011;68477;42.698;23.342;2023-09-19T00:42:45;9.00;;;4.50;;
79076;SDS011;68477;42.698;23.342;2023-09-19T00:45:12;9.05;;;4.97;;
79076;SDS011;68477;42.698;23.342;2023-09-19T00:47:40;7.97;;;4.45;;
79076;SDS011;68477;42.698;23.342;2023-09-19T00:50:07;7.30;;;4.75;;
79076;SDS011;68477;42.698;23.342;2023-09-19T00:52:35;8.13;;;5.00;;
79076;SDS011;68477;42.698;23.342;2023-09-19T00:55:03;7.70;;;4.72;;
79076;SDS011;68477;42.698;23.342;2023-09-19T00:57:30;7.75;;;4.57;;
79076;SDS011;68477;42.698;23.342;2023-09-19T00:59:57;6.57;;;4.38;;
79076;SDS011;68477;42.698;23.342;2023-09-19T01:02:24;5.70;;;4.50;;
79076;SDS011;68477;42.698;23.342;2023-09-19T01:04:53;8.38;;;5.47;;
79076;SDS011;68477;42.698;23.342;2023-09-19T01:07:19;8.50;;;4.75;;
79076;SDS011;68477;42.698;23.342;2023-09-19T01:09:46;7.72;;;4.57;;
79076;SDS011;68477;42.698;23.342;2023-09-19T01:12:12;7.72;;;4.88;;
79076;SDS011;68477;42.698;23.342;2023-09-19T01:14:49;6.25;;;4.68;;
79076;SDS011;68477;42.698;23.342;2023-09-19T01:17:27;7.75;;;5.55;;
79076;SDS011;68477;42.698;23.342;2023-09-19T01:31:28;10.00;;;6.00;;
79076;SDS011;68477;42.698;23.342;2023-09-19T01:34:00;9.13;;;5.57;;
79076;SDS011;68477;42.698;23.342;2023-09-19T01:36:30;8.88;;;5.30;;
79076;SDS011;68477;42.698;23.342;2023-09-19T01:39:10;8.68;;;5.88;;
79076;SDS011;68477;42.698;23.342;2023-09-19T01:44:03;7.65;;;5.93;;
79076;SDS011;68477;42.698;23.342;2023-09-19T01:46:34;9.02;;;4.57;;
79076;SDS011;68477;42.698;23.342;2023-09-19T01:52:14;9.48;;;5.57;;
79076;SDS011;68477;42.698;23.342;2023-09-19T01:54:51;10.40;;;5.63;;
79076;SDS011;68477;42.698;23.342;2023-09-19T02:00:17;9.77;;;5.55;;
79076;SDS011;68477;42.698;23.342;2023-09-19T02:02:46;10.23;;;6.03;;
79076;SDS011;68477;42.698;23.342;2023-09-19T02:05:13;7.30;;;5.63;;
79076;SDS011;68477;42.698;23.342;2023-09-19T02:07:38;13.55;;;5.85;;
79076;SDS011;68477;42.698;23.342;2023-09-19T02:10:05;10.35;;;6.25;;
79076;SDS011;68477;42.698;23.342;2023-09-19T02:12:32;9.45;;;6.25;;
79076;SDS011;68477;42.698;23.342;2023-09-19T02:14:58;15.55;;;6.50;;
79076;SDS011;68477;42.698;23.342;2023-09-19T02:17:24;14.90;;;6.43;;
79076;SDS011;68477;42.698;23.342;2023-09-19T02:19:56;13.07;;;6.45;;
79076;SDS011;68477;42.698;23.342;2023-09-19T02:22:21;8.90;;;6.65;;
79076;SDS011;68477;42.698;23.342;2023-09-19T02:24:49;8.88;;;6.47;;
79076;SDS011;68477;42.698;23.342;2023-09-19T02:27:16;10.55;;;7.22;;
79076;SDS011;68477;42.698;23.342;2023-09-19T02:29:42;9.35;;;6.57;;
79076;SDS011;68477;42.698;23.342;2023-09-19T02:32:08;10.32;;;6.22;;
79076;SDS011;68477;42.698;23.342;2023-09-19T02:34:36;9.15;;;5.10;;
79076;SDS011;68477;42.698;23.342;2023-09-19T02:37:04;9.98;;;5.82;;
79076;SDS011;68477;42.698;23.342;2023-09-19T02:39:33;10.45;;;5.70;;
79076;SDS011;68477;42.698;23.342;2023-09-19T02:41:59;9.75;;;6.65;;
79076;SDS011;68477;42.698;23.342;2023-09-19T02:44:25;8.77;;;5.40;;
79076;SDS011;68477;42.698;23.342;2023-09-19T02:46:51;7.45;;;5.55;;
79076;SDS011;68477;42.698;23.342;2023-09-19T02:49:16;10.25;;;6.18;;
79076;SDS011;68477;42.698;23.342;2023-09-19T02:51:43;9.52;;;5.93;;
79076;SDS011;68477;42.698;23.342;2023-09-19T02:54:10;6.70;;;5.25;;
79076;SDS011;68477;42.698;23.342;2023-09-19T02:56:36;6.63;;;4.90;;
79076;SDS011;68477;42.698;23.342;2023-09-19T02:59:03;7.45;;;5.30;;
79076;SDS011;68477;42.698;23.342;2023-09-19T03:01:28;6.85;;;5.35;;
79076;SDS011;68477;42.698;23.342;2023-09-19T03:03:55;8.43;;;4.95;;
79076;SDS011;68477;42.698;23.342;2023-09-19T03:06:21;9.25;;;6.40;;
79076;SDS011;68477;42.698;23.342;2023-09-19T03:08:47;9.02;;;5.60;;
79076;SDS011;68477;42.698;23.342;2023-09-19T03:11:14;7.65;;;5.75;;
79076;SDS011;68477;42.698;23.342;2023-09-19T03:13:41;12.40;;;6.53;;
79076;SDS011;68477;42.698;23.342;2023-09-19T03:16:07;11.75;;;6.47;;
79076;SDS011;68477;42.698;23.342;2023-09-19T03:18:34;10.32;;;6.70;;
79076;SDS011;68477;42.698;23.342;2023-09-19T03:20:59;7.93;;;5.68;;
79076;SDS011;68477;42.698;23.342;2023-09-19T03:23:26;10.38;;;6.03;;
79076;SDS011;68477;42.698;23.342;2023-09-19T03:25:52;9.23;;;6.25;;
79076;SDS011;68477;42.698;23.342;2023-09-19T03:28:18;13.52;;;7.15;;
79076;SDS011;68477;42.698;23.342;2023-09-19T03:30:45;10.10;;;6.07;;
79076;SDS011;68477;42.698;23.342;2023-09-19T03:33:11;12.15;;;7.47;;
79076;SDS011;68477;42.698;23.342;2023-09-19T03:35:37;12.90;;;6.20;;
79076;SDS011;68477;42.698;23.342;2023-09-19T03:38:04;11.82;;;6.10;;
79076;SDS011;68477;42.698;23.342;2023-09-19T03:40:30;8.20;;;5.57;;
79076;SDS011;68477;42.698;23.342;2023-09-19T03:42:56;8.25;;;5.68;;
79076;SDS011;68477;42.698;23.342;2023-09-19T03:45:21;9.23;;;6.32;;
79076;SDS011;68477;42.698;23.342;2023-09-19T03:47:47;11.38;;;6.57;;
79076;SDS011;68477;42.698;23.342;2023-09-19T03:50:12;13.60;;;7.50;;
79076;SDS011;68477;42.698;23.342;2023-09-19T03:52:44;11.57;;;5.95;;
79076;SDS011;68477;42.698;23.342;2023-09-19T03:55:09;9.77;;;6.00;;
79076;SDS011;68477;42.698;23.342;2023-09-19T03:57:42;9.05;;;6.38;;
79076;SDS011;68477;42.698;23.342;2023-09-19T04:00:14;8.60;;;6.45;;
79076;SDS011;68477;42.698;23.342;2023-09-19T04:02:43;11.73;;;6.43;;
79076;SDS011;68477;42.698;23.342;2023-09-19T04:05:08;10.48;;;6.13;;
79076;SDS011;68477;42.698;23.342;2023-09-19T04:07:35;9.25;;;6.50;;
79076;SDS011;68477;42.698;23.342;2023-09-19T04:10:01;10.02;;;7.22;;
79076;SDS011;68477;42.698;23.342;2023-09-19T04:12:27;12.32;;;7.03;;
79076;SDS011;68477;42.698;23.342;2023-09-19T04:14:53;11.25;;;6.65;;
79076;SDS011;68477;42.698;23.342;2023-09-19T04:17:18;9.77;;;6.20;;
79076;SDS011;68477;42.698;23.342;2023-09-19T04:19:44;12.07;;;7.20;;
79076;SDS011;68477;42.698;23.342;2023-09-19T04:22:10;12.05;;;7.15;;
79076;SDS011;68477;42.698;23.342;2023-09-19T04:24:38;10.85;;;7.25;;
79076;SDS011;68477;42.698;23.342;2023-09-19T04:27:04;11.35;;;7.30;;
79076;SDS011;68477;42.698;23.342;2023-09-19T04:29:30;8.93;;;6.53;;
79076;SDS011;68477;42.698;23.342;2023-09-19T04:31:55;10.27;;;6.28;;
79076;SDS011;68477;42.698;23.342;2023-09-19T04:34:22;11.15;;;7.43;;
79076;SDS011;68477;42.698;23.342;2023-09-19T04:36:49;8.68;;;6.63;;
79076;SDS011;68477;42.698;23.342;2023-09-19T04:39:15;12.05;;;7.55;;
79076;SDS011;68477;42.698;23.342;2023-09-19T04:41:41;12.25;;;6.63;;
79076;SDS011;68477;42.698;23.342;2023-09-19T04:44:07;8.57;;;6.43;;
79076;SDS011;68477;42.698;23.342;2023-09-19T04:46:33;10.90;;;6.65;;
79076;SDS011;68477;42.698;23.342;2023-09-19T04:48:59;13.43;;;7.28;;
79076;SDS011;68477;42.698;23.342;2023-09-19T04:51:25;10.35;;;6.10;;
79076;SDS011;68477;42.698;23.342;2023-09-19T04:56:21;10.20;;;6.85;;
79076;SDS011;68477;42.698;23.342;2023-09-19T04:58:47;8.02;;;5.85;;
79076;SDS011;68477;42.698;23.342;2023-09-19T05:01:12;11.35;;;5.95;;
79076;SDS011;68477;42.698;23.342;2023-09-19T05:03:40;10.70;;;6.78;;
79076;SDS011;68477;42.698;23.342;2023-09-19T05:06:05;11.30;;;6.35;;
79076;SDS011;68477;42.698;23.342;2023-09-19T05:08:31;11.95;;;6.38;;
79076;SDS011;68477;42.698;23.342;2023-09-19T05:10:56;8.43;;;5.93;;
79076;SDS011;68477;42.698;23.342;2023-09-19T05:13:22;10.75;;;5.88;;
79076;SDS011;68477;42.698;23.342;2023-09-19T05:15:52;8.63;;;5.70;;
79076;SDS011;68477;42.698;23.342;2023-09-19T05:18:17;10.80;;;5.80;;
79076;SDS011;68477;42.698;23.342;2023-09-19T05:20:43;12.10;;;5.28;;
79076;SDS011;68477;42.698;23.342;2023-09-19T05:23:09;9.25;;;5.85;;
79076;SDS011;68477;42.698;23.342;2023-09-19T05:25:36;8.30;;;5.07;;
79076;SDS011;68477;42.698;23.342;2023-09-19T05:28:04;10.00;;;5.45;;
79076;SDS011;68477;42.698;23.342;2023-09-19T05:30:35;16.35;;;5.70;;
79076;SDS011;68477;42.698;23.342;2023-09-19T05:33:01;7.47;;;5.28;;
79076;SDS011;68477;42.698;23.342;2023-09-19T05:35:30;7.60;;;5.28;;
79076;SDS011;68477;42.698;23.342;2023-09-19T05:37:56;8.38;;;4.93;;
79076;SDS011;68477;42.698;23.342;2023-09-19T05:40:23;10.95;;;4.20;;
79076;SDS011;68477;42.698;23.342;2023-09-19T05:42:49;6.38;;;4.75;;
79076;SDS011;68477;42.698;23.342;2023-09-19T05:45:15;6.95;;;4.28;;
79076;SDS011;68477;42.698;23.342;2023-09-19T05:47:48;6.93;;;4.35;;
79076;SDS011;68477;42.698;23.342;2023-09-19T05:50:15;9.40;;;4.53;;
79076;SDS011;68477;42.698;23.342;2023-09-19T05:52:41;11.23;;;4.45;;
79076;SDS011;68477;42.698;23.342;2023-09-19T05:55:08;6.32;;;4.40;;
79076;SDS011;68477;42.698;23.342;2023-09-19T05:57:34;7.10;;;4.55;;
79076;SDS011;68477;42.698;23.342;2023-09-19T06:00:00;6.80;;;4.15;;
79076;SDS011;68477;42.698;23.342;2023-09-19T06:02:25;6.47;;;4.50;;
79076;SDS011;68477;42.698;23.342;2023-09-19T06:04:55;8.18;;;4.30;;
79076;SDS011;68477;42.698;23.342;2023-09-19T06:07:21;12.20;;;4.65;;
79076;SDS011;68477;42.698;23.342;2023-09-19T06:09:51;7.05;;;4.07;;
79076;SDS011;68477;42.698;23.342;2023-09-19T06:12:16;7.80;;;4.10;;
79076;SDS011;68477;42.698;23.342;2023-09-19T06:14:42;7.72;;;4.35;;
79076;SDS011;68477;42.698;23.342;2023-09-19T06:17:08;10.20;;;4.15;;
79076;SDS011;68477;42.698;23.342;2023-09-19T06:19:34;10.73;;;4.43;;
79076;SDS011;68477;42.698;23.342;2023-09-19T06:21:59;7.32;;;4.18;;
79076;SDS011;68477;42.698;23.342;2023-09-19T06:24:25;6.97;;;4.40;;
79076;SDS011;68477;42.698;23.342;2023-09-19T06:26:51;11.00;;;5.07;;
79076;SDS011;68477;42.698;23.342;2023-09-19T06:29:17;9.35;;;4.55;;
79076;SDS011;68477;42.698;23.342;2023-09-19T06:31:43;10.48;;;4.65;;
79076;SDS011;68477;42.698;23.342;2023-09-19T06:34:09;9.20;;;4.45;;
79076;SDS011;68477;42.698;23.342;2023-09-19T06:36:35;15.63;;;6.50;;
79076;SDS011;68477;42.698;23.342;2023-09-19T06:39:01;10.55;;;5.40;;
79076;SDS011;68477;42.698;23.342;2023-09-19T06:41:29;9.75;;;4.57;;
79076;SDS011;68477;42.698;23.342;2023-09-19T06:43:55;8.35;;;4.38;;
79076;SDS011;68477;42.698;23.342;2023-09-19T06:46:21;11.10;;;4.80;;
79076;SDS011;68477;42.698;23.342;2023-09-19T06:48:46;9.73;;;5.00;;
79076;SDS011;68477;42.698;23.342;2023-09-19T06:51:12;9.45;;;4.47;;
79076;SDS011;68477;42.698;23.342;2023-09-19T06:53:41;8.63;;;4.13;;
79076;SDS011;68477;42.698;23.342;2023-09-19T06:56:07;8.20;;;3.90;;
79076;SDS011;68477;42.698;23.342;2023-09-19T06:58:32;8.05;;;4.43;;
79076;SDS011;68477;42.698;23.342;2023-09-19T07:00:58;6.68;;;4.25;;
79076;SDS011;68477;42.698;23.342;2023-09-19T07:03:23;7.55;;;4.60;;
79076;SDS011;68477;42.698;23.342;2023-09-19T07:05:51;10.65;;;4.72;;
79076;SDS011;68477;42.698;23.342;2023-09-19T07:08:17;7.10;;;4.30;;
79076;SDS011;68477;42.698;23.342;2023-09-19T07:10:45;13.35;;;4.32;;
79076;SDS011;68477;42.698;23.342;2023-09-19T07:13:13;8.13;;;4.22;;
79076;SDS011;68477;42.698;23.342;2023-09-19T07:15:42;9.70;;;4.28;;
79076;SDS011;68477;42.698;23.342;2023-09-19T07:18:15;8.68;;;4.28;;
79076;SDS011;68477;42.698;23.342;2023-09-19T07:20:42;9.63;;;4.47;;
79076;SDS011;68477;42.698;23.342;2023-09-19T07:23:20;8.40;;;4.20;;
79076;SDS011;68477;42.698;23.342;2023-09-19T07:25:48;6.32;;;4.03;;
79076;SDS011;68477;42.698;23.342;2023-09-19T07:28:13;7.70;;;3.90;;
79076;SDS011;68477;42.698;23.342;2023-09-19T07:30:40;7.35;;;4.07;;
79076;SDS011;68477;42.698;23.342;2023-09-19T07:33:06;8.88;;;4.32;;
79076;SDS011;68477;42.698;23.342;2023-09-19T07:35:32;11.55;;;4.97;;
79076;SDS011;68477;42.698;23.342;2023-09-19T07:37:58;7.22;;;4.40;;
79076;SDS011;68477;42.698;23.342;2023-09-19T07:40:26;12.48;;;4.97;;
79076;SDS011;68477;42.698;23.342;2023-09-19T07:42:53;9.45;;;5.20;;
79076;SDS011;68477;42.698;23.342;2023-09-19T07:45:20;11.38;;;5.40;;
79076;SDS011;68477;42.698;23.342;2023-09-19T07:47:49;8.50;;;4.82;;
79076;SDS011;68477;42.698;23.342;2023-09-19T07:50:16;7.20;;;4.30;;
79076;SDS011;68477;42.698;23.342;2023-09-19T07:52:44;10.60;;;4.55;;
79076;SDS011;68477;42.698;23.342;2023-09-19T07:55:10;9.15;;;6.00;;
79076;SDS011;68477;42.698;23.342;2023-09-19T07:57:36;6.57;;;4.60;;
79076;SDS011;68477;42.698;23.342;2023-09-19T08:00:02;11.48;;;5.10;;
79076;SDS011;68477;42.698;23.342;2023-09-19T08:02:33;7.22;;;4.25;;
79076;SDS011;68477;42.698;23.342;2023-09-19T08:05:00;8.80;;;5.35;;
79076;SDS011;68477;42.698;23.342;2023-09-19T08:07:25;7.55;;;4.55;;
79076;SDS011;68477;42.698;23.342;2023-09-19T08:09:51;12.77;;;4.53;;
79076;SDS011;68477;42.698;23.342;2023-09-19T08:12:17;11.13;;;5.15;;
79076;SDS011;68477;42.698;23.342;2023-09-19T08:14:46;8.90;;;5.22;;
79076;SDS011;68477;42.698;23.342;2023-09-19T08:17:12;9.48;;;5.32;;
79076;SDS011;68477;42.698;23.342;2023-09-19T08:19:38;13.88;;;7.60;;
79076;SDS011;68477;42.698;23.342;2023-09-19T08:22:05;6.50;;;4.90;;
79076;SDS011;68477;42.698;23.342;2023-09-19T08:24:31;10.52;;;6.03;;
79076;SDS011;68477;42.698;23.342;2023-09-19T08:26:58;9.68;;;5.65;;
79076;SDS011;68477;42.698;23.342;2023-09-19T08:29:24;7.88;;;4.15;;
79076;SDS011;68477;42.698;23.342;2023-09-19T08:31:54;8.23;;;4.22;;
79076;SDS011;68477;42.698;23.342;2023-09-19T08:34:20;6.57;;;4.28;;
79076;SDS011;68477;42.698;23.342;2023-09-19T08:36:46;23.65;;;6.05;;
79076;SDS011;68477;42.698;23.342;2023-09-19T08:39:13;7.55;;;4.20;;
79076;SDS011;68477;42.698;23.342;2023-09-19T08:41:39;7.32;;;4.15;;
79076;SDS011;68477;42.698;23.342;2023-09-19T08:44:05;10.43;;;5.22;;
79076;SDS011;68477;42.698;23.342;2023-09-19T08:46:30;9.52;;;5.18;;
79076;SDS011;68477;42.698;23.342;2023-09-19T08:49:04;7.72;;;4.70;;
79076;SDS011;68477;42.698;23.342;2023-09-19T08:51:37;6.60;;;4.50;;
79076;SDS011;68477;42.698;23.342;2023-09-19T08:54:09;9.13;;;5.25;;
79076;SDS011;68477;42.698;23.342;2023-09-19T08:56:43;8.63;;;5.78;;
79076;SDS011;68477;42.698;23.342;2023-09-19T08:59:10;10.80;;;4.82;;
79076;SDS011;68477;42.698;23.342;2023-09-19T09:01:37;7.78;;;4.38;;
79076;SDS011;68477;42.698;23.342;2023-09-19T09:04:04;5.97;;;4.32;;
79076;SDS011;68477;42.698;23.342;2023-09-19T09:06:38;8.45;;;4.35;;
79076;SDS011;68477;42.698;23.342;2023-09-19T09:09:04;9.20;;;4.75;;
79076;SDS011;68477;42.698;23.342;2023-09-19T09:11:30;9.75;;;4.75;;
79076;SDS011;68477;42.698;23.342;2023-09-19T09:13:58;7.32;;;4.50;;
79076;SDS011;68477;42.698;23.342;2023-09-19T09:16:23;6.43;;;4.22;;
79076;SDS011;68477;42.698;23.342;2023-09-19T09:18:51;7.32;;;4.63;;
79076;SDS011;68477;42.698;23.342;2023-09-19T09:21:23;9.90;;;5.32;;
79076;SDS011;68477;42.698;23.342;2023-09-19T09:23:50;6.80;;;4.88;;
79076;SDS011;68477;42.698;23.342;2023-09-19T09:29:26;9.55;;;5.07;;
79076;SDS011;68477;42.698;23.342;2023-09-19T09:34:45;6.53;;;4.55;;
79076;SDS011;68477;42.698;23.342;2023-09-19T09:37:14;9.85;;;5.05;;
79076;SDS011;68477;42.698;23.342;2023-09-19T09:39:54;11.95;;;4.47;;
79076;SDS011;68477;42.698;23.342;2023-09-19T09:42:44;7.18;;;4.80;;
79076;SDS011;68477;42.698;23.342;2023-09-19T09:47:41;10.68;;;4.85;;
79076;SDS011;68477;42.698;23.342;2023-09-19T09:50:22;9.95;;;4.55;;
79076;SDS011;68477;42.698;23.342;2023-09-19T09:52:57;7.72;;;4.45;;
79076;SDS011;68477;42.698;23.342;2023-09-19T09:55:36;11.73;;;4.82;;
79076;SDS011;68477;42.698;23.342;2023-09-19T09:58:23;7.30;;;4.57;;
79076;SDS011;68477;42.698;23.342;2023-09-19T10:00:54;7.47;;;4.20;;
79076;SDS011;68477;42.698;23.342;2023-09-19T10:03:32;7.72;;;4.65;;
79076;SDS011;68477;42.698;23.342;2023-09-19T10:06:09;7.18;;;4.40;;
79076;SDS011;68477;42.698;23.342;2023-09-19T10:11:38;8.00;;;4.25;;
79076;SDS011;68477;42.698;23.342;2023-09-19T10:14:08;11.60;;;4.60;;
79076;SDS011;68477;42.698;23.342;2023-09-19T10:16:38;5.45;;;3.70;;
79076;SDS011;68477;42.698;23.342;2023-09-19T10:19:06;9.23;;;4.85;;
79076;SDS011;68477;42.698;23.342;2023-09-19T10:21:34;8.90;;;4.47;;
79076;SDS011;68477;42.698;23.342;2023-09-19T10:24:01;6.82;;;4.22;;
79076;SDS011;68477;42.698;23.342;2023-09-19T10:26:34;5.70;;;4.07;;
79076;SDS011;68477;42.698;23.342;2023-09-19T10:31:28;6.40;;;4.82;;
79076;SDS011;68477;42.698;23.342;2023-09-19T10:34:00;9.80;;;4.80;;
79076;SDS011;68477;42.698;23.342;2023-09-19T10:36:32;5.78;;;4.20;;
79076;SDS011;68477;42.698;23.342;2023-09-19T10:39:01;6.68;;;4.93;;
79076;SDS011;68477;42.698;23.342;2023-09-19T10:41:32;8.95;;;4.82;;
79076;SDS011;68477;42.698;23.342;2023-09-19T10:46:29;9.30;;;4.53;;
79076;SDS011;68477;42.698;23.342;2023-09-19T10:48:58;9.10;;;4.60;;
79076;SDS011;68477;42.698;23.342;2023-09-19T10:51:25;12.38;;;4.95;;
79076;SDS011;68477;42.698;23.342;2023-09-19T10:56:35;5.90;;;4.38;;
79076;SDS011;68477;42.698;23.342;2023-09-19T10:59:08;5.30;;;4.00;;
79076;SDS011;68477;42.698;23.342;2023-09-19T11:01:51;6.60;;;4.28;;
79076;SDS011;68477;42.698;23.342;2023-09-19T11:04:22;9.90;;;4.68;;
79076;SDS011;68477;42.698;23.342;2023-09-19T11:07:00;7.22;;;4.63;;
79076;SDS011;68477;42.698;23.342;2023-09-19T11:14:59;12.32;;;4.72;;
79076;SDS011;68477;42.698;23.342;2023-09-19T11:17:34;7.72;;;4.50;;
79076;SDS011;68477;42.698;23.342;2023-09-19T11:30:43;6.00;;;4.43;;
79076;SDS011;68477;42.698;23.342;2023-09-19T11:33:17;6.82;;;4.38;;
79076;SDS011;68477;42.698;23.342;2023-09-19T11:46:32;9.27;;;5.03;;
79076;SDS011;68477;42.698;23.342;2023-09-19T11:49:08;5.97;;;4.47;;
79076;SDS011;68477;42.698;23.342;2023-09-19T11:51:54;6.18;;;4.28;;
79076;SDS011;68477;42.698;23.342;2023-09-19T11:54:20;6.15;;;5.00;;
79076;SDS011;68477;42.698;23.342;2023-09-19T11:56:57;10.50;;;5.05;;
79076;SDS011;68477;42.698;23.342;2023-09-19T11:59:25;9.10;;;5.10;;
79076;SDS011;68477;42.698;23.342;2023-09-19T12:01:58;8.55;;;5.78;;
79076;SDS011;68477;42.698;23.342;2023-09-19T12:04:39;9.88;;;4.90;;
79076;SDS011;68477;42.698;23.342;2023-09-19T12:07:16;8.07;;;4.45;;
79076;SDS011;68477;42.698;23.342;2023-09-19T12:12:27;7.05;;;4.70;;
79076;SDS011;68477;42.698;23.342;2023-09-19T12:14:53;9.27;;;4.70;;
79076;SDS011;68477;42.698;23.342;2023-09-19T12:17:20;7.05;;;4.28;;
79076;SDS011;68477;42.698;23.342;2023-09-19T12:19:55;7.13;;;4.80;;
79076;SDS011;68477;42.698;23.342;2023-09-19T12:22:22;7.57;;;4.40;;
79076;SDS011;68477;42.698;23.342;2023-09-19T12:24:47;9.85;;;4.95;;
79076;SDS011;68477;42.698;23.342;2023-09-19T12:27:13;7.63;;;5.25;;
79076;SDS011;68477;42.698;23.342;2023-09-19T12:29:46;10.30;;;5.43;;
79076;SDS011;68477;42.698;23.342;2023-09-19T12:32:14;6.70;;;4.55;;
79076;SDS011;68477;42.698;23.342;2023-09-19T12:34:42;4.75;;;4.13;;
79076;SDS011;68477;42.698;23.342;2023-09-19T12:37:15;9.52;;;4.25;;
79076;SDS011;68477;42.698;23.342;2023-09-19T12:39:46;5.95;;;4.57;;
79076;SDS011;68477;42.698;23.342;2023-09-19T12:42:14;6.88;;;4.43;;
79076;SDS011;68477;42.698;23.342;2023-09-19T12:44:44;9.15;;;4.55;;
79076;SDS011;68477;42.698;23.342;2023-09-19T12:47:16;6.72;;;4.15;;
79076;SDS011;68477;42.698;23.342;2023-09-19T12:52:51;7.80;;;4.35;;
79076;SDS011;68477;42.698;23.342;2023-09-19T12:58:00;8.10;;;4.55;;
79076;SDS011;68477;42.698;23.342;2023-09-19T13:05:47;15.50;;;5.38;;
79076;SDS011;68477;42.698;23.342;2023-09-19T13:08:26;12.70;;;4.55;;
79076;SDS011;68477;42.698;23.342;2023-09-19T13:11:16;5.30;;;4.18;;
79076;SDS011;68477;42.698;23.342;2023-09-19T13:19:41;9.27;;;5.20;;
79076;SDS011;68477;42.698;23.342;2023-09-19T13:25:30;8.63;;;4.57;;
79076;SDS011;68477;42.698;23.342;2023-09-19T13:27:57;8.25;;;4.60;;
79076;SDS011;68477;42.698;23.342;2023-09-19T13:30:24;7.88;;;4.35;;
79076;SDS011;68477;42.698;23.342;2023-09-19T13:33:10;6.55;;;4.45;;
79076;SDS011;68477;42.698;23.342;2023-09-19T13:35:37;6.80;;;4.40;;
79076;SDS011;68477;42.698;23.342;2023-09-19T13:38:06;6.68;;;5.00;;
79076;SDS011;68477;42.698;23.342;2023-09-19T13:40:34;8.63;;;5.07;;
79076;SDS011;68477;42.698;23.342;2023-09-19T13:43:02;6.10;;;4.82;;
79076;SDS011;68477;42.698;23.342;2023-09-19T13:45:28;11.75;;;5.47;;
79076;SDS011;68477;42.698;23.342;2023-09-19T13:47:55;7.22;;;5.63;;
79076;SDS011;68477;42.698;23.342;2023-09-19T13:50:21;9.32;;;4.60;;
79076;SDS011;68477;42.698;23.342;2023-09-19T13:52:49;7.38;;;5.18;;
79076;SDS011;68477;42.698;23.342;2023-09-19T13:55:16;7.22;;;4.65;;
79076;SDS011;68477;42.698;23.342;2023-09-19T13:57:48;6.18;;;4.68;;
79076;SDS011;68477;42.698;23.342;2023-09-19T14:00:23;8.00;;;4.65;;
79076;SDS011;68477;42.698;23.342;2023-09-19T14:02:49;8.90;;;5.43;;
79076;SDS011;68477;42.698;23.342;2023-09-19T14:05:17;6.13;;;4.70;;
79076;SDS011;68477;42.698;23.342;2023-09-19T14:07:43;7.25;;;4.75;;
79076;SDS011;68477;42.698;23.342;2023-09-19T14:10:10;7.50;;;4.75;;
79076;SDS011;68477;42.698;23.342;2023-09-19T14:12:36;10.13;;;4.50;;
79076;SDS011;68477;42.698;23.342;2023-09-19T14:15:08;6.55;;;4.28;;
79076;SDS011;68477;42.698;23.342;2023-09-19T14:17:34;6.97;;;4.70;;
79076;SDS011;68477;42.698;23.342;2023-09-19T14:19:59;6.75;;;5.03;;
79076;SDS011;68477;42.698;23.342;2023-09-19T14:22:25;7.93;;;4.80;;
79076;SDS011;68477;42.698;23.342;2023-09-19T14:24:51;9.00;;;4.47;;
79076;SDS011;68477;42.698;23.342;2023-09-19T14:27:17;7.30;;;4.40;;
79076;SDS011;68477;42.698;23.342;2023-09-19T14:29:43;8.80;;;4.85;;
79076;SDS011;68477;42.698;23.342;2023-09-19T14:32:09;8.10;;;5.00;;
79076;SDS011;68477;42.698;23.342;2023-09-19T14:34:35;9.57;;;4.90;;
79076;SDS011;68477;42.698;23.342;2023-09-19T14:37:06;11.55;;;5.75;;
79076;SDS011;68477;42.698;23.342;2023-09-19T14:39:32;10.43;;;4.95;;
79076;SDS011;68477;42.698;23.342;2023-09-19T14:41:58;8.38;;;5.07;;
79076;SDS011;68477;42.698;23.342;2023-09-19T14:44:23;7.22;;;5.05;;
79076;SDS011;68477;42.698;23.342;2023-09-19T14:46:50;9.85;;;5.97;;
79076;SDS011;68477;42.698;23.342;2023-09-19T14:49:16;8.73;;;4.95;;
79076;SDS011;68477;42.698;23.342;2023-09-19T14:51:42;8.30;;;4.57;;
79076;SDS011;68477;42.698;23.342;2023-09-19T14:54:12;9.95;;;4.80;;
79076;SDS011;68477;42.698;23.342;2023-09-19T14:56:38;8.68;;;5.20;;
79076;SDS011;68477;42.698;23.342;2023-09-19T14:59:03;8.48;;;5.35;;
79076;SDS011;68477;42.698;23.342;2023-09-19T15:01:29;12.60;;;5.55;;
79076;SDS011;68477;42.698;23.342;2023-09-19T15:03:55;5.57;;;4.43;;
79076;SDS011;68477;42.698;23.342;2023-09-19T15:06:20;8.98;;;5.28;;
79076;SDS011;68477;42.698;23.342;2023-09-19T15:08:46;8.00;;;4.68;;
79076;SDS011;68477;42.698;23.342;2023-09-19T15:11:16;9.25;;;5.20;;
79076;SDS011;68477;42.698;23.342;2023-09-19T15:13:42;10.10;;;5.18;;
79076;SDS011;68477;42.698;23.342;2023-09-19T15:16:09;8.48;;;5.82;;
79076;SDS011;68477;42.698;23.342;2023-09-19T15:18:35;8.23;;;5.47;;
79076;SDS011;68477;42.698;23.342;2023-09-19T15:21:08;11.40;;;7.10;;
79076;SDS011;68477;42.698;23.342;2023-09-19T15:23:35;9.10;;;5.35;;
79076;SDS011;68477;42.698;23.342;2023-09-19T15:26:02;11.38;;;5.90;;
79076;SDS011;68477;42.698;23.342;2023-09-19T15:28:39;8.88;;;5.80;;
79076;SDS011;68477;42.698;23.342;2023-09-19T15:31:05;9.33;;;5.47;;
79076;SDS011;68477;42.698;23.342;2023-09-19T15:33:31;11.20;;;5.85;;
79076;SDS011;68477;42.698;23.342;2023-09-19T15:38:30;12.27;;;5.63;;
79076;SDS011;68477;42.698;23.342;2023-09-19T15:40:59;8.43;;;5.00;;
79076;SDS011;68477;42.698;23.342;2023-09-19T15:43:25;8.68;;;5.22;;
79076;SDS011;68477;42.698;23.342;2023-09-19T15:45:50;8.90;;;5.32;;
79076;SDS011;68477;42.698;23.342;2023-09-19T15:48:16;7.47;;;5.40;;
79076;SDS011;68477;42.698;23.342;2023-09-19T15:50:43;8.02;;;5.13;;
79076;SDS011;68477;42.698;23.342;2023-09-19T15:53:09;8.50;;;6.03;;
79076;SDS011;68477;42.698;23.342;2023-09-19T15:55:40;8.15;;;5.45;;
79076;SDS011;68477;42.698;23.342;2023-09-19T15:58:06;9.93;;;5.57;;
79076;SDS011;68477;42.698;23.342;2023-09-19T16:00:32;8.10;;;5.13;;
79076;SDS011;68477;42.698;23.342;2023-09-19T16:03:01;11.10;;;5.82;;
79076;SDS011;68477;42.698;23.342;2023-09-19T16:05:28;8.90;;;5.45;;
79076;SDS011;68477;42.698;23.342;2023-09-19T16:08:04;9.52;;;6.10;;
79076;SDS011;68477;42.698;23.342;2023-09-19T16:10:34;8.45;;;5.78;;
79076;SDS011;68477;42.698;23.342;2023-09-19T16:13:01;9.48;;;5.82;;